Terminal Aerodrome Forecast
Issued by NWS

Home | Current Version | Previous Version | Text Only | Print | Product List | Glossary Off
Versions: 1 2 3 4 5 6 7 8 9 10 11 12 13 14 15 16 17 18 19

000
FTUS43 KMPX 261740
TAFAXN
TAF
KAXN 261740Z 2618/2718 33010G17KT P6SM OVC025
     FM262100 34013G22KT P6SM BKN035
     FM270000 36008KT P6SM FEW035
     FM270300 36005KT P6SM SKC
     FM270800 VRB03KT P6SM FEW250
     FM271500 15004KT P6SM FEW120 SCT250=

USA.gov is the U.S. government's official web portal to all federal, state and local government web resources and services.